Time;durP1;ratioP1;P1;durP2;ratioP2;P2;SDS_P1;SDS_P2;PMS_P1;PMS_P2;Temp;Humidity;BMP_temperature;BMP_pressure;BME280_temperature;BME280_humidity;BME280_pressure;Samples;Min_cycle;Max_cycle;Signal;HPM_P1;HPM_P2
2021/03/25 00:01:29;;;;;;;5.70;3.20;;;-1.90;76.80;;;;;;5062650;28;20187;-78
2021/03/25 00:03:56;;;;;;;5.13;2.40;;;-1.90;77.10;;;;;;5061591;28;20224;-77
2021/03/25 00:06:23;;;;;;;8.30;3.57;;;-1.90;77.00;;;;;;5047738;28;20903;-77
2021/03/25 00:08:48;;;;;;;3.87;3.57;;;-1.90;76.70;;;;;;5046380;28;20171;-77
2021/03/25 00:11:14;;;;;;;4.17;2.83;;;-2.00;76.40;;;;;;5047851;28;20919;-76
2021/03/25 00:13:41;;;;;;;12.33;3.07;;;-2.00;76.30;;;;;;5064377;28;20197;-77
2021/03/25 00:16:08;;;;;;;4.60;3.63;;;-2.00;76.40;;;;;;5052420;28;20184;-76
2021/03/25 00:18:35;;;;;;;3.47;3.27;;;-2.10;76.40;;;;;;5052299;28;20639;-76
2021/03/25 00:21:02;;;;;;;3.07;2.47;;;-2.10;76.50;;;;;;5055658;28;20190;-78
2021/03/25 00:23:27;;;;;;;7.27;3.27;;;-2.10;76.60;;;;;;5065814;28;20180;-77
2021/03/25 00:25:53;;;;;;;5.93;3.00;;;-2.10;77.00;;;;;;5053431;28;20265;-76
2021/03/25 00:28:19;;;;;;;3.30;3.00;;;-2.20;77.10;;;;;;5065736;28;20221;-76
2021/03/25 00:30:45;;;;;;;5.70;3.27;;;-2.20;77.80;;;;;;5034710;28;20676;-77
2021/03/25 00:33:14;;;;;;;8.93;3.20;;;-2.20;78.00;;;;;;5052790;28;20710;-76
2021/03/25 00:35:41;;;;;;;2.77;2.60;;;-2.20;77.90;;;;;;5066993;28;20171;-76
2021/03/25 00:38:07;;;;;;;2.70;2.47;;;-2.20;78.00;;;;;;5049198;28;20187;-77
2021/03/25 00:40:33;;;;;;;5.03;2.63;;;-2.20;77.70;;;;;;5050625;28;20250;-77
2021/03/25 00:43:00;;;;;;;3.53;2.97;;;-2.20;77.20;;;;;;5050854;28;20187;-77
2021/03/25 00:45:25;;;;;;;3.13;2.70;;;-2.20;77.50;;;;;;5057627;28;20294;-77
2021/03/25 00:47:51;;;;;;;3.50;3.17;;;-2.20;77.80;;;;;;5039827;28;20300;-77
2021/03/25 00:50:25;;;;;;;5.73;3.43;;;-2.20;78.40;;;;;;5057517;28;20187;-77
2021/03/25 00:52:51;;;;;;;3.70;3.37;;;-2.20;78.30;;;;;;5045760;28;20180;-77
2021/03/25 00:55:18;;;;;;;5.73;3.47;;;-2.20;78.10;;;;;;5048345;28;20242;-76
2021/03/25 00:57:43;;;;;;;4.53;3.67;;;-2.20;78.10;;;;;;5055940;28;20203;-76
2021/03/25 01:00:12;;;;;;;5.23;2.17;;;-2.30;78.00;;;;;;5051486;28;20211;-77
2021/03/25 01:02:38;;;;;;;4.70;2.53;;;-2.30;78.00;;;;;;5065886;28;20278;-76
2021/03/25 01:05:04;;;;;;;3.27;2.37;;;-2.30;77.90;;;;;;5035661;28;20276;-76
2021/03/25 01:07:30;;;;;;;5.70;2.43;;;-2.30;77.90;;;;;;5047807;28;20680;-76
2021/03/25 01:09:56;;;;;;;4.43;3.60;;;-2.30;78.00;;;;;;5049907;28;20232;-76
2021/03/25 01:12:21;;;;;;;2.63;2.43;;;-2.30;78.00;;;;;;5049945;28;20551;-76
2021/03/25 01:14:47;;;;;;;3.73;2.83;;;-2.30;77.70;;;;;;5065256;28;20620;-75
2021/03/25 01:17:13;;;;;;;1.67;1.57;;;-2.40;77.60;;;;;;5049559;28;20190;-75
2021/03/25 01:19:39;;;;;;;4.20;1.77;;;-2.30;77.80;;;;;;5049818;28;20187;-77
2021/03/25 01:22:05;;;;;;;1.87;1.77;;;-2.40;77.70;;;;;;5061240;28;20203;-77
2021/03/25 01:24:31;;;;;;;2.33;1.90;;;-2.40;77.80;;;;;;5058252;28;20179;-76
2021/03/25 01:26:56;;;;;;;1.50;1.40;;;-2.40;77.80;;;;;;5047942;28;20263;-76
2021/03/25 01:29:23;;;;;;;4.03;2.23;;;-2.40;78.00;;;;;;5081394;28;20607;-76
2021/03/25 01:31:49;;;;;;;3.03;1.97;;;-2.50;78.30;;;;;;5046873;28;20207;-75
2021/03/25 01:34:20;;;;;;;1.80;1.70;;;-2.50;78.30;;;;;;5049477;28;20187;-76
2021/03/25 01:36:46;;;;;;;2.43;1.33;;;-2.50;78.10;;;;;;5056319;28;20183;-75
2021/03/25 01:39:12;;;;;;;1.63;1.53;;;-2.50;78.20;;;;;;5048070;28;20587;-76
2021/03/25 01:41:40;;;;;;;1.77;1.70;;;-2.60;78.20;;;;;;5072236;28;20341;-76
2021/03/25 01:44:06;;;;;;;1.43;1.43;;;-2.60;78.10;;;;;;5050823;28;20240;-76
2021/03/25 01:46:38;;;;;;;1.90;1.37;;;-2.60;77.90;;;;;;5048894;28;20634;-75
2021/03/25 01:49:07;;;;;;;1.93;1.63;;;-2.60;77.90;;;;;;5081325;28;20558;-75
2021/03/25 01:51:52;;;;;;;1.93;1.73;;;-2.60;78.10;;;;;;5046819;28;20176;-75
2021/03/25 01:54:49;;;;;;;3.60;1.90;;;-2.60;78.30;;;;;;5040491;28;20233;-77
2021/03/25 01:57:34;;;;;;;1.77;1.70;;;-2.60;78.90;;;;;;5043218;28;20789;-76
2021/03/25 02:00:17;;;;;;;2.37;2.00;;;-2.60;79.90;;;;;;5060297;28;20193;-77
2021/03/25 02:03:04;;;;;;;2.63;1.63;;;-2.70;80.10;;;;;;5046497;28;20179;-75
2021/03/25 02:05:58;;;;;;;2.37;2.27;;;-2.70;80.10;;;;;;5045272;28;20187;-76
2021/03/25 02:08:26;;;;;;;4.27;2.13;;;-2.70;80.20;;;;;;5057393;28;20210;-76
2021/03/25 02:11:23;;;;;;;2.83;2.53;;;-2.70;80.50;;;;;;5043715;28;20195;-76
2021/03/25 02:14:31;;;;;;;2.03;1.93;;;-2.70;80.60;;;;;;5066529;28;20256;-75
2021/03/25 02:17:20;;;;;;;4.33;2.53;;;-2.70;80.90;;;;;;5036422;28;20261;-75
2021/03/25 02:20:00;;;;;;;2.03;1.90;;;-2.70;81.10;;;;;;5041478;28;20190;-75
2021/03/25 02:22:49;;;;;;;2.67;2.37;;;-2.70;81.30;;;;;;5026198;28;20340;-76
2021/03/25 02:25:41;;;;;;;2.47;2.27;;;-2.80;81.30;;;;;;4954526;28;20209;-75
2021/03/25 02:28:18;;;;;;;2.93;2.20;;;-2.80;81.00;;;;;;4957704;28;20234;-76
2021/03/25 02:30:58;;;;;;;2.37;2.23;;;-2.80;80.90;;;;;;4956939;28;20228;-75
2021/03/25 02:33:23;;;;;;;5.13;2.00;;;-2.90;80.80;;;;;;4956473;28;20280;-75
2021/03/25 02:36:12;;;;;;;2.27;2.07;;;-2.90;80.60;;;;;;4947594;28;20210;-75
2021/03/25 02:38:45;;;;;;;3.03;1.30;;;-2.90;80.30;;;;;;4954123;28;20260;-75
2021/03/25 02:41:31;;;;;;;2.40;1.10;;;-2.90;79.80;;;;;;4935967;28;20194;-75
2021/03/25 02:44:11;;;;;;;0.83;0.77;;;-2.80;79.30;;;;;;4953802;28;20869;-75
2021/03/25 02:46:43;;;;;;;1.90;1.40;;;-2.70;78.90;;;;;;4954668;28;20638;-75
2021/03/25 02:49:13;;;;;;;0.60;0.60;;;-2.70;78.70;;;;;;4941920;28;20191;-75
2021/03/25 02:52:11;;;;;;;1.37;1.27;;;-2.60;78.70;;;;;;4957453;28;20182;-75
2021/03/25 02:54:36;;;;;;;0.97;0.97;;;-2.50;78.80;;;;;;4969734;28;20646;-76
2021/03/25 02:57:18;;;;;;;1.13;1.13;;;-2.50;78.90;;;;;;4987232;28;20196;-77
2021/03/25 02:59:47;;;;;;;0.97;0.77;;;-2.50;78.80;;;;;;4987681;28;20186;-76
2021/03/25 03:02:17;;;;;;;0.97;0.97;;;-2.40;79.30;;;;;;5020869;28;20688;-76
2021/03/25 03:04:47;;;;;;;4.30;1.77;;;-2.30;79.40;;;;;;5057938;28;20194;-74
2021/03/25 03:07:22;;;;;;;3.23;1.37;;;-2.20;79.30;;;;;;5052422;28;20215;-77
2021/03/25 03:09:52;;;;;;;0.80;0.80;;;-2.20;78.50;;;;;;5063281;28;20732;-75
2021/03/25 03:12:25;;;;;;;1.07;0.93;;;-2.20;78.10;;;;;;5065966;28;20583;-75
2021/03/25 03:15:12;;;;;;;0.80;0.80;;;-2.10;77.60;;;;;;5045392;28;20176;-74
2021/03/25 03:17:41;;;;;;;1.10;1.10;;;-2.00;77.30;;;;;;5059747;28;20552;-75
2021/03/25 03:20:16;;;;;;;0.83;0.83;;;-2.00;77.30;;;;;;5046621;28;20741;-74
2021/03/25 03:22:42;;;;;;;0.80;0.77;;;-1.90;77.20;;;;;;5041415;28;20174;-75
2021/03/25 03:25:13;;;;;;;1.13;0.60;;;-1.90;77.00;;;;;;5040696;28;20180;-75
2021/03/25 03:28:08;;;;;;;0.50;0.40;;;-1.80;76.70;;;;;;5045379;28;20242;-74
2021/03/25 03:30:42;;;;;;;3.67;1.27;;;-1.80;76.50;;;;;;5041838;28;20204;-75
2021/03/25 03:33:29;;;;;;;1.53;1.10;;;-1.60;77.10;;;;;;5058992;28;20209;-75
2021/03/25 03:35:58;;;;;;;1.10;1.10;;;-1.60;76.90;;;;;;5057747;28;20218;-75
2021/03/25 03:38:36;;;;;;;1.07;1.00;;;-1.50;76.70;;;;;;5066095;28;20180;-74
2021/03/25 03:41:03;;;;;;;1.13;0.80;;;-1.40;76.50;;;;;;5038974;28;20557;-75
2021/03/25 03:43:33;;;;;;;0.53;0.53;;;-1.40;76.60;;;;;;5040357;28;20171;-76
2021/03/25 03:46:06;;;;;;;0.87;0.87;;;-1.30;76.20;;;;;;5045233;28;20726;-75
2021/03/25 03:48:58;;;;;;;0.90;0.90;;;-1.30;76.00;;;;;;5044950;28;20700;-75
2021/03/25 03:51:36;;;;;;;1.07;0.97;;;-1.30;75.80;;;;;;5029575;28;20189;-75
2021/03/25 03:54:03;;;;;;;1.00;0.70;;;-1.20;75.90;;;;;;5009166;28;20702;-76
2021/03/25 03:56:44;;;;;;;0.87;0.87;;;-1.30;75.40;;;;;;5044228;28;20199;-75
2021/03/25 03:59:18;;;;;;;0.97;0.97;;;-1.30;75.60;;;;;;5045349;28;20241;-74
2021/03/25 04:01:56;;;;;;;1.27;1.20;;;-1.30;75.70;;;;;;5034372;28;20202;-76
2021/03/25 04:04:38;;;;;;;0.97;0.87;;;-1.30;75.60;;;;;;5034969;28;20184;-74
2021/03/25 04:07:08;;;;;;;1.40;1.30;;;-1.30;76.00;;;;;;5028904;28;20208;-74
2021/03/25 04:09:41;;;;;;;1.03;0.80;;;-1.40;76.30;;;;;;5048147;28;20733;-76
2021/03/25 04:12:16;;;;;;;2.27;2.03;;;-1.40;76.70;;;;;;5024304;28;20206;-76
2021/03/25 04:14:48;;;;;;;2.23;1.90;;;-1.40;77.10;;;;;;5034468;28;20195;-76
2021/03/25 04:17:21;;;;;;;4.70;2.37;;;-1.50;77.50;;;;;;5037291;28;20287;-75
2021/03/25 04:19:49;;;;;;;4.37;2.23;;;-1.50;78.10;;;;;;5028765;28;20188;-74
2021/03/25 04:22:19;;;;;;;4.97;2.17;;;-1.50;78.50;;;;;;5029462;28;20219;-75
2021/03/25 04:25:00;;;;;;;2.90;2.70;;;-1.60;78.70;;;;;;5028737;28;20189;-74
2021/03/25 04:27:30;;;;;;;3.17;2.90;;;-1.60;78.80;;;;;;5026259;28;20977;-75
2021/03/25 04:30:00;;;;;;;5.03;2.27;;;-1.70;79.00;;;;;;5049316;28;20316;-75
2021/03/25 04:32:27;;;;;;;2.50;2.40;;;-1.70;79.20;;;;;;5047309;28;20645;-75
2021/03/25 04:34:53;;;;;;;2.33;2.03;;;-1.70;79.20;;;;;;5049326;28;20268;-75
2021/03/25 04:37:20;;;;;;;4.83;2.00;;;-1.70;79.20;;;;;;5081267;28;20187;-75
2021/03/25 04:39:48;;;;;;;5.30;1.97;;;-1.80;79.30;;;;;;5049386;28;20241;-75
2021/03/25 04:42:15;;;;;;;11.47;4.07;;;-1.80;79.30;;;;;;5046489;28;20229;-75
2021/03/25 04:45:11;;;;;;;2.10;1.70;;;-1.80;79.40;;;;;;5042709;28;20281;-76
2021/03/25 04:47:44;;;;;;;2.57;2.43;;;-1.90;79.30;;;;;;5002760;28;20227;-76
2021/03/25 04:50:38;;;;;;;1.97;1.83;;;-1.90;79.30;;;;;;5008055;28;20256;-74
2021/03/25 04:53:05;;;;;;;1.57;1.47;;;-1.90;79.20;;;;;;5002372;28;20192;-76
2021/03/25 04:55:35;;;;;;;1.80;1.70;;;-2.00;79.20;;;;;;5001805;28;20203;-75
2021/03/25 04:58:07;;;;;;;1.70;1.60;;;-2.00;79.20;;;;;;5002516;28;20197;-74
2021/03/25 05:00:37;;;;;;;1.47;1.47;;;-2.00;79.30;;;;;;5010797;28;20188;-75
2021/03/25 05:03:05;;;;;;;1.93;1.80;;;-2.00;79.40;;;;;;4995444;28;20991;-76
2021/03/25 05:05:32;;;;;;;2.33;1.90;;;-2.00;79.40;;;;;;4991814;28;20195;-74
2021/03/25 05:08:06;;;;;;;6.30;3.20;;;-2.00;79.50;;;;;;4996520;28;20212;-75
2021/03/25 05:10:40;;;;;;;2.17;1.97;;;-2.00;79.80;;;;;;4992663;28;20309;-75
2021/03/25 05:13:29;;;;;;;4.37;3.10;;;-2.00;80.00;;;;;;5012990;28;20194;-75
2021/03/25 05:16:15;;;;;;;2.53;2.43;;;-2.00;80.10;;;;;;4989852;28;20198;-75
2021/03/25 05:18:56;;;;;;;1.97;1.87;;;-2.00;80.00;;;;;;4997138;28;20274;-77
2021/03/25 05:21:51;;;;;;;4.37;3.17;;;-2.00;80.10;;;;;;4996486;28;20185;-77
2021/03/25 05:24:35;;;;;;;3.23;2.00;;;-2.00;80.40;;;;;;5033392;28;20206;-76
2021/03/25 05:27:25;;;;;;;3.63;3.33;;;-2.00;80.30;;;;;;5047494;28;20552;-76
2021/03/25 05:29:54;;;;;;;3.70;2.67;;;-2.00;80.50;;;;;;5047238;28;20206;-74
2021/03/25 05:32:24;;;;;;;6.80;3.73;;;-2.00;80.60;;;;;;5080139;28;20242;-76
2021/03/25 05:34:53;;;;;;;5.53;3.73;;;-1.90;80.80;;;;;;5048845;28;20909;-77
2021/03/25 05:37:20;;;;;;;7.47;4.10;;;-1.90;80.70;;;;;;5048546;28;20274;-76
2021/03/25 05:39:46;;;;;;;4.33;3.90;;;-1.80;80.80;;;;;;5046762;28;20261;-75
2021/03/25 05:43:03;;;;;;;9.73;4.67;;;-1.80;80.60;;;;;;5079578;28;20180;-75
2021/03/25 05:46:07;;;;;;;2.80;2.70;;;-1.70;80.80;;;;;;4993935;28;21112;-76
2021/03/25 05:48:36;;;;;;;6.70;3.43;;;-1.70;80.60;;;;;;4916939;29;20307;-75
2021/03/25 05:51:32;;;;;;;4.57;3.50;;;-1.60;80.60;;;;;;4909345;29;20361;-76
2021/03/25 05:54:10;;;;;;;8.97;4.27;;;-1.60;80.40;;;;;;4919077;29;20258;-75
2021/03/25 05:56:58;;;;;;;2.80;2.60;;;-1.60;80.40;;;;;;4913304;29;20188;-75
2021/03/25 05:59:29;;;;;;;10.17;4.43;;;-1.50;80.40;;;;;;4915314;29;20649;-75
2021/03/25 06:02:01;;;;;;;4.33;3.23;;;-1.40;80.30;;;;;;4899183;29;20299;-76
2021/03/25 06:04:26;;;;;;;5.03;3.70;;;-1.30;80.20;;;;;;4919765;29;20176;-77
2021/03/25 06:07:17;;;;;;;5.20;3.87;;;-1.30;80.20;;;;;;4917705;29;20225;-76
2021/03/25 06:10:17;;;;;;;5.97;3.63;;;-1.20;80.10;;;;;;4912340;29;20192;-75
2021/03/25 06:13:01;;;;;;;3.10;2.90;;;-1.10;80.10;;;;;;4905690;29;20260;-75
2021/03/25 06:15:52;;;;;;;8.43;4.50;;;-1.00;80.10;;;;;;4909127;29;20201;-75
2021/03/25 06:18:30;;;;;;;7.60;3.27;;;-0.90;79.90;;;;;;4918905;29;20196;-75
2021/03/25 06:21:04;;;;;;;6.93;3.33;;;-0.80;79.90;;;;;;4936133;28;20280;-74
2021/03/25 06:23:38;;;;;;;5.83;3.70;;;-0.80;79.70;;;;;;4953512;28;20221;-75
2021/03/25 06:26:32;;;;;;;6.57;4.67;;;-0.70;79.50;;;;;;5019684;28;20606;-75
2021/03/25 06:29:07;;;;;;;3.37;3.17;;;-0.60;79.30;;;;;;5046461;28;20328;-78
2021/03/25 06:31:48;;;;;;;4.17;3.70;;;-0.50;79.30;;;;;;5043789;28;20183;-75
2021/03/25 06:34:41;;;;;;;5.47;4.13;;;-0.40;79.10;;;;;;5042331;28;20183;-76
2021/03/25 06:37:32;;;;;;;5.97;4.20;;;-0.30;79.00;;;;;;5046697;28;20563;-76
2021/03/25 06:40:15;;;;;;;7.43;4.57;;;-0.30;78.80;;;;;;5042822;28;20195;-75
2021/03/25 06:43:13;;;;;;;11.03;5.03;;;-0.20;78.70;;;;;;5045787;28;20712;-76
2021/03/25 06:45:45;;;;;;;6.57;3.37;;;-0.10;78.40;;;;;;4993419;28;20612;-75
2021/03/25 06:48:30;;;;;;;4.77;3.37;;;-0.10;78.20;;;;;;4978479;28;20276;-75
2021/03/25 06:50:56;;;;;;;5.83;2.23;;;0.00;77.90;;;;;;4993721;28;20228;-76
2021/03/25 06:53:32;;;;;;;3.07;2.17;;;0.10;77.60;;;;;;4996129;28;20263;-75
2021/03/25 06:56:06;;;;;;;2.30;1.70;;;0.10;77.30;;;;;;4992603;28;20197;-76
2021/03/25 06:58:35;;;;;;;2.17;1.60;;;0.10;77.30;;;;;;4993382;28;20698;-75
2021/03/25 07:01:11;;;;;;;2.67;1.73;;;0.20;76.80;;;;;;4991972;28;20247;-75
2021/03/25 07:03:37;;;;;;;2.73;2.53;;;0.10;76.40;;;;;;4987897;28;20256;-77
2021/03/25 07:06:05;;;;;;;4.10;2.33;;;0.10;76.30;;;;;;4986183;28;20244;-78
2021/03/25 07:08:32;;;;;;;2.00;1.90;;;0.10;75.90;;;;;;4989882;28;20893;-76
2021/03/25 07:11:04;;;;;;;2.80;1.67;;;0.10;75.80;;;;;;5002067;28;20194;-79
2021/03/25 07:13:38;;;;;;;3.83;1.80;;;0.10;75.80;;;;;;4969893;28;20535;-78
2021/03/25 07:16:08;;;;;;;1.93;1.83;;;0.20;76.20;;;;;;4972306;28;20193;-80
2021/03/25 07:18:46;;;;;;;2.47;1.77;;;0.20;76.00;;;;;;5006112;28;20181;-81
2021/03/25 07:21:42;;;;;;;2.43;2.33;;;0.20;75.60;;;;;;5012433;28;20181;-81
2021/03/25 07:24:26;;;;;;;3.00;2.73;;;0.30;75.60;;;;;;5050899;28;20211;-79
2021/03/25 07:27:09;;;;;;;2.57;2.47;;;0.30;75.90;;;;;;5051561;28;20265;-79
2021/03/25 07:29:38;;;;;;;7.00;2.67;;;0.40;75.80;;;;;;5048955;28;20207;-80
2021/03/25 07:32:13;;;;;;;3.37;2.27;;;0.50;75.90;;;;;;5084497;28;20610;-81
2021/03/25 07:34:47;;;;;;;3.90;3.00;;;0.60;75.70;;;;;;5057622;28;20175;-81
2021/03/25 07:37:17;;;;;;;2.67;2.47;;;0.70;75.60;;;;;;5083006;28;20638;-80
2021/03/25 07:39:49;;;;;;;3.03;2.83;;;0.80;75.10;;;;;;5051890;28;20183;-79
2021/03/25 07:42:28;;;;;;;2.43;2.23;;;0.80;74.70;;;;;;5065454;28;20223;-79
2021/03/25 07:45:14;;;;;;;3.30;3.00;;;0.90;74.70;;;;;;5039494;28;20184;-78
2021/03/25 07:47:40;;;;;;;2.67;2.10;;;1.00;74.80;;;;;;5047788;28;20210;-79
2021/03/25 07:50:23;;;;;;;3.53;3.23;;;1.10;74.20;;;;;;5049292;28;20179;-79
2021/03/25 07:52:49;;;;;;;4.47;3.53;;;1.20;73.60;;;;;;5047881;28;20329;-80
2021/03/25 07:55:31;;;;;;;4.30;2.53;;;1.30;73.40;;;;;;5047836;28;20190;-79
2021/03/25 07:57:58;;;;;;;1.77;1.40;;;1.40;73.60;;;;;;5064637;28;20260;-79
2021/03/25 08:00:35;;;;;;;1.77;1.30;;;1.60;74.30;;;;;;5051035;28;20188;-79
2021/03/25 08:03:22;;;;;;;1.50;1.43;;;1.70;74.10;;;;;;5071575;28;20269;-79
2021/03/25 08:05:49;;;;;;;1.60;1.57;;;1.90;73.20;;;;;;5054780;28;20179;-80
2021/03/25 08:08:27;;;;;;;1.83;1.43;;;2.10;72.50;;;;;;5053157;28;20199;-80
2021/03/25 08:11:09;;;;;;;1.17;1.10;;;2.30;71.60;;;;;;5054257;28;20183;-79
2021/03/25 08:13:36;;;;;;;2.70;1.63;;;2.50;69.90;;;;;;5048644;28;20222;-79
2021/03/25 08:16:10;;;;;;;1.50;1.40;;;2.60;68.40;;;;;;5054148;28;20667;-79
2021/03/25 08:18:39;;;;;;;1.87;1.77;;;2.80;68.60;;;;;;5050851;28;20187;-80
2021/03/25 08:21:14;;;;;;;1.70;1.37;;;2.90;67.60;;;;;;5050683;28;20195;-80
2021/03/25 08:24:05;;;;;;;0.97;0.97;;;3.10;67.60;;;;;;5053764;28;20193;-81
2021/03/25 08:26:52;;;;;;;1.90;1.13;;;3.40;66.00;;;;;;5037761;28;20210;-80
2021/03/25 08:29:28;;;;;;;1.97;1.77;;;3.80;65.00;;;;;;5086119;28;20961;-80
2021/03/25 08:32:23;;;;;;;2.87;1.40;;;4.20;64.60;;;;;;5049709;28;20198;-80
2021/03/25 08:34:51;;;;;;;1.90;1.50;;;4.90;64.40;;;;;;5031765;28;20688;-80
2021/03/25 08:37:19;;;;;;;2.30;2.20;;;5.50;63.70;;;;;;5049225;28;20276;-81
2021/03/25 08:39:48;;;;;;;1.60;1.50;;;6.10;61.80;;;;;;5031794;28;20187;-81
2021/03/25 08:42:38;;;;;;;2.17;1.67;;;6.60;59.30;;;;;;5061731;28;20206;-82
2021/03/25 08:45:16;;;;;;;1.93;1.70;;;7.40;58.30;;;;;;5032977;28;20291;-82
2021/03/25 08:47:56;;;;;;;1.63;1.53;;;8.20;56.60;;;;;;5044752;28;20203;-80
2021/03/25 08:50:46;;;;;;;1.47;1.37;;;8.80;55.00;;;;;;5049403;28;20191;-81
2021/03/25 08:53:14;;;;;;;1.87;1.77;;;9.30;53.90;;;;;;5048403;28;20260;-79
2021/03/25 08:55:40;;;;;;;1.80;1.70;;;9.40;52.50;;;;;;5045473;28;20227;-82
2021/03/25 08:58:20;;;;;;;2.43;2.30;;;9.50;52.80;;;;;;5031598;28;20196;-82
2021/03/25 09:00:49;;;;;;;1.67;1.57;;;9.30;52.30;;;;;;5028135;28;20335;-82
2021/03/25 09:03:45;;;;;;;2.00;1.90;;;8.70;51.00;;;;;;5031299;28;20195;-82
2021/03/25 09:06:14;;;;;;;2.23;2.13;;;8.50;53.00;;;;;;5030702;28;20282;-80
2021/03/25 09:08:43;;;;;;;2.37;2.27;;;8.50;52.90;;;;;;5034275;28;20285;-81
2021/03/25 09:11:15;;;;;;;1.90;1.80;;;8.50;53.60;;;;;;5053846;28;20187;-78
2021/03/25 09:14:00;;;;;;;2.37;2.00;;;8.30;53.40;;;;;;5061867;28;20191;-81
2021/03/25 09:16:32;;;;;;;2.40;1.90;;;8.20;53.20;;;;;;5041524;28;20208;-82
2021/03/25 09:19:00;;;;;;;7.53;1.97;;;8.20;54.80;;;;;;5048257;28;20183;-82
2021/03/25 09:21:28;;;;;;;2.80;2.60;;;8.40;54.20;;;;;;5051309;28;20184;-82
2021/03/25 09:24:00;;;;;;;3.03;2.83;;;8.40;54.10;;;;;;5051152;28;20183;-80
2021/03/25 09:26:26;;;;;;;3.30;2.50;;;8.20;54.40;;;;;;5049540;28;20737;-82
2021/03/25 09:29:04;;;;;;;3.33;2.07;;;8.10;54.30;;;;;;5050455;28;20207;-81
2021/03/25 09:31:35;;;;;;;1.77;1.67;;;8.00;54.50;;;;;;5053749;28;20553;-81
2021/03/25 09:34:10;;;;;;;2.27;2.17;;;8.00;54.30;;;;;;5063963;28;20189;-81
2021/03/25 09:36:36;;;;;;;3.93;2.10;;;8.00;54.40;;;;;;5064231;28;20179;-80
2021/03/25 09:39:04;;;;;;;2.50;2.40;;;8.20;54.40;;;;;;5050752;28;20844;-81
2021/03/25 09:41:31;;;;;;;3.07;2.70;;;8.40;53.80;;;;;;5046469;28;20188;-80
2021/03/25 09:44:09;;;;;;;2.73;2.13;;;8.70;53.60;;;;;;5049584;28;20175;-81
2021/03/25 09:46:58;;;;;;;3.30;2.73;;;9.20;54.00;;;;;;5050316;28;20188;-81
2021/03/25 09:49:47;;;;;;;2.40;2.30;;;9.80;54.10;;;;;;5044744;28;20776;-81
2021/03/25 09:52:28;;;;;;;8.53;2.77;;;10.30;53.10;;;;;;5050502;28;20180;-82
2021/03/25 09:54:54;;;;;;;2.53;2.33;;;10.70;51.10;;;;;;5052467;28;20186;-80
2021/03/25 09:57:29;;;;;;;2.87;2.67;;;10.70;50.30;;;;;;5050432;28;20316;-82
2021/03/25 10:00:08;;;;;;;2.65;2.50;;;10.60;50.70;;;;;;5049614;28;20206;-82
2021/03/25 10:02:37;;;;;;;2.72;2.53;;;10.60;50.80;;;;;;5049712;28;20187;-82
2021/03/25 10:05:25;;;;;;;2.92;2.53;;;10.50;49.60;;;;;;5053996;28;20188;-83
2021/03/25 10:07:56;;;;;;;2.15;2.03;;;10.40;50.30;;;;;;5052133;28;20199;-82
2021/03/25 10:10:43;;;;;;;2.15;2.05;;;10.10;50.80;;;;;;5054456;28;20206;-82
2021/03/25 10:13:12;;;;;;;2.40;2.20;;;10.00;51.00;;;;;;5049754;28;20184;-83
2021/03/25 10:15:56;;;;;;;1.80;1.70;;;10.00;51.20;;;;;;5043125;28;20287;-84
2021/03/25 10:18:25;;;;;;;2.13;2.10;;;10.10;51.70;;;;;;5053510;28;20192;-82
2021/03/25 10:20:53;;;;;;;1.90;1.80;;;10.00;50.80;;;;;;5044761;28;20194;-82
2021/03/25 10:23:19;;;;;;;1.93;1.70;;;9.90;50.70;;;;;;5048628;28;20205;-81
2021/03/25 10:25:46;;;;;;;1.87;1.73;;;9.80;51.50;;;;;;5046601;28;20200;-81
2021/03/25 10:28:14;;;;;;;2.30;2.10;;;9.80;50.80;;;;;;5054059;28;20683;-80
2021/03/25 10:30:41;;;;;;;1.20;1.20;;;9.50;51.30;;;;;;5040395;28;20272;-81
2021/03/25 10:33:10;;;;;;;1.33;1.33;;;9.50;51.90;;;;;;5047156;28;20264;-81
2021/03/25 10:35:49;;;;;;;1.67;1.67;;;9.60;51.60;;;;;;5047616;28;20206;-81
2021/03/25 10:38:18;;;;;;;0.80;0.80;;;9.50;52.30;;;;;;5075077;28;20188;-81
2021/03/25 10:40:48;;;;;;;1.10;1.10;;;9.70;52.50;;;;;;5064460;28;20647;-81
2021/03/25 10:43:34;;;;;;;1.63;1.63;;;9.70;51.20;;;;;;5044567;28;20269;-81
2021/03/25 10:46:01;;;;;;;1.65;1.33;;;9.70;51.30;;;;;;5047483;28;20682;-82
2021/03/25 10:48:32;;;;;;;2.83;1.65;;;9.80;51.10;;;;;;5061873;28;20202;-81
2021/03/25 10:51:13;;;;;;;2.13;1.93;;;10.00;51.90;;;;;;5049823;28;20194;-81
2021/03/25 10:53:45;;;;;;;2.05;1.95;;;10.10;50.60;;;;;;5044438;28;20658;-85
2021/03/25 10:56:16;;;;;;;1.93;1.83;;;9.90;50.70;;;;;;5047134;28;20183;-84
2021/03/25 10:58:46;;;;;;;1.92;1.83;;;9.80;51.80;;;;;;5043264;28;20194;-82
2021/03/25 11:01:20;;;;;;;1.92;1.80;;;10.10;51.70;;;;;;5048826;28;20188;-83
2021/03/25 11:03:46;;;;;;;1.65;1.65;;;10.10;50.70;;;;;;5049033;28;20179;-85
2021/03/25 11:06:31;;;;;;;1.60;1.50;;;9.90;50.00;;;;;;5066321;28;20759;-84
2021/03/25 11:09:28;;;;;;;0.97;0.97;;;9.80;51.50;;;;;;5050796;28;20206;-85
2021/03/25 11:12:03;;;;;;;1.40;1.30;;;10.00;50.70;;;;;;5046965;28;20309;-86
2021/03/25 11:14:36;;;;;;;1.40;1.30;;;9.90;49.00;;;;;;5048741;28;20186;-85
2021/03/25 11:17:22;;;;;;;1.20;1.20;;;9.80;49.50;;;;;;5040322;28;20264;-84
2021/03/25 11:19:59;;;;;;;0.93;0.93;;;10.10;50.00;;;;;;5064369;28;20659;-80
2021/03/25 11:22:25;;;;;;;2.10;1.40;;;10.30;49.10;;;;;;5047556;28;20199;-81
2021/03/25 11:24:51;;;;;;;2.00;1.80;;;10.60;49.20;;;;;;5064302;28;20191;-80
2021/03/25 11:27:21;;;;;;;1.50;1.50;;;10.90;49.10;;;;;;5050226;28;20210;-80
2021/03/25 11:29:48;;;;;;;0.90;0.90;;;11.40;47.80;;;;;;5049105;28;20191;-80
2021/03/25 11:32:16;;;;;;;1.70;1.60;;;11.90;47.20;;;;;;5048812;28;20274;-80
2021/03/25 11:34:45;;;;;;;2.10;2.03;;;12.40;47.20;;;;;;5044107;28;20194;-81
2021/03/25 11:37:33;;;;;;;2.05;1.95;;;12.50;46.50;;;;;;5044784;28;20192;-85
2021/03/25 11:40:19;;;;;;;1.80;1.70;;;12.70;48.50;;;;;;5047917;28;20191;-86
2021/03/25 11:42:47;;;;;;;2.22;1.98;;;13.20;48.10;;;;;;5055535;28;20690;-81
2021/03/25 11:45:39;;;;;;;1.75;1.65;;;13.60;47.00;;;;;;5048764;28;20291;-83
2021/03/25 11:48:19;;;;;;;1.67;1.58;;;13.50;44.90;;;;;;5057143;28;20594;-78
2021/03/25 11:50:48;;;;;;;1.35;1.35;;;13.30;45.20;;;;;;5055930;28;20627;-80
2021/03/25 11:53:39;;;;;;;1.52;1.42;;;12.90;46.10;;;;;;5047644;28;20191;-78
2021/03/25 11:56:19;;;;;;;1.70;1.70;;;12.50;46.50;;;;;;5041305;28;20172;-80
2021/03/25 11:59:21;;;;;;;1.67;1.67;;;12.50;46.60;;;;;;5036705;28;20229;-78
2021/03/25 12:01:47;;;;;;;1.60;1.58;;;12.60;47.50;;;;;;5046203;28;20217;-86
2021/03/25 12:04:19;;;;;;;1.38;1.38;;;12.50;46.70;;;;;;5080968;28;20290;-82
2021/03/25 12:07:08;;;;;;;1.35;1.35;;;12.40;46.40;;;;;;5057038;28;20179;-82
2021/03/25 12:09:34;;;;;;;1.23;1.20;;;12.00;45.80;;;;;;5054588;28;20737;-79
2021/03/25 12:12:01;;;;;;;1.30;1.30;;;12.00;46.80;;;;;;5050006;28;20197;-79
2021/03/25 12:14:28;;;;;;;1.10;1.10;;;12.30;47.20;;;;;;5058828;28;20721;-84
2021/03/25 12:16:54;;;;;;;1.58;1.38;;;12.70;48.70;;;;;;5052046;28;20175;-82
2021/03/25 12:19:20;;;;;;;1.48;1.48;;;13.00;45.90;;;;;;5054764;28;20193;-83
2021/03/25 12:21:46;;;;;;;1.42;1.33;;;13.00;45.40;;;;;;5050069;28;20278;-81
2021/03/25 12:24:12;;;;;;;1.42;1.42;;;13.10;45.70;;;;;;5049840;28;20176;-80
2021/03/25 12:26:38;;;;;;;1.35;1.35;;;12.90;44.40;;;;;;5050521;28;20206;-79
2021/03/25 12:29:04;;;;;;;1.75;1.65;;;12.80;45.80;;;;;;5049723;28;20211;-81
2021/03/25 12:31:39;;;;;;;1.35;1.30;;;12.90;46.00;;;;;;5047067;28;20267;-80
2021/03/25 12:34:06;;;;;;;1.23;1.23;;;13.10;44.80;;;;;;5047495;28;20192;-83
2021/03/25 12:36:32;;;;;;;1.58;1.58;;;12.70;45.50;;;;;;5045596;28;20187;-81
2021/03/25 12:38:58;;;;;;;1.65;1.55;;;12.50;46.60;;;;;;5047457;28;20176;-80
2021/03/25 12:41:41;;;;;;;1.30;1.25;;;12.50;46.80;;;;;;5047565;28;20210;-81
2021/03/25 12:44:09;;;;;;;1.60;1.50;;;12.70;46.80;;;;;;5044614;28;20638;-82
2021/03/25 12:46:35;;;;;;;2.60;1.50;;;13.00;46.80;;;;;;5046661;28;20265;-81
2021/03/25 12:49:01;;;;;;;1.38;1.38;;;13.10;45.60;;;;;;5042205;28;20208;-81
2021/03/25 12:51:27;;;;;;;1.70;1.60;;;12.80;43.60;;;;;;5040827;28;20865;-81
2021/03/25 12:53:54;;;;;;;1.65;1.55;;;12.20;44.40;;;;;;5048048;28;20581;-81
2021/03/25 12:56:31;;;;;;;2.15;2.05;;;11.90;45.50;;;;;;5046578;28;20270;-80
2021/03/25 12:59:00;;;;;;;1.88;1.80;;;11.70;45.50;;;;;;5043800;28;20271;-80
2021/03/25 13:01:28;;;;;;;1.45;1.45;;;11.70;46.00;;;;;;5038813;28;20237;-81
2021/03/25 13:03:55;;;;;;;1.38;1.27;;;11.80;46.30;;;;;;5045183;28;20191;-81
2021/03/25 13:06:23;;;;;;;1.65;1.60;;;12.00;45.80;;;;;;5060943;28;20180;-78
2021/03/25 13:08:49;;;;;;;1.80;1.70;;;11.90;46.00;;;;;;5048252;28;20207;-87
2021/03/25 13:11:22;;;;;;;2.17;2.08;;;12.10;46.70;;;;;;5080245;28;20678;-80
2021/03/25 13:13:48;;;;;;;1.35;1.35;;;12.10;45.70;;;;;;5042052;28;20199;-81
2021/03/25 13:16:14;;;;;;;1.30;1.27;;;12.20;46.20;;;;;;5044979;28;21040;-80
2021/03/25 13:18:41;;;;;;;1.40;1.38;;;12.10;44.80;;;;;;5047529;28;20629;-80
2021/03/25 13:21:07;;;;;;;1.42;1.42;;;11.80;45.00;;;;;;5046029;28;20256;-79
2021/03/25 13:23:34;;;;;;;1.73;1.63;;;11.50;45.60;;;;;;5046221;28;20278;-81
2021/03/25 13:26:01;;;;;;;1.45;1.40;;;11.40;45.20;;;;;;5048202;28;20180;-81
2021/03/25 13:28:28;;;;;;;1.90;1.80;;;11.00;45.70;;;;;;5046631;28;20211;-80